sensor_id;sensor_type;location;lat;lon;timestamp;P1;durP1;ratioP1;P2;durP2;ratioP2
33495;SDS011;19836;55.812;37.560;2023-09-12T03:14:02;22.38;;;16.00;;
33495;SDS011;19836;55.812;37.560;2023-09-12T03:20:57;19.50;;;15.73;;
33495;SDS011;19836;55.812;37.560;2023-09-12T03:24:12;20.77;;;15.85;;
33495;SDS011;19836;55.812;37.560;2023-09-12T03:59:50;22.92;;;16.90;;
33495;SDS011;19836;55.812;37.560;2023-09-12T04:02:17;22.33;;;18.05;;
33495;SDS011;19836;55.812;37.560;2023-09-12T04:04:43;24.67;;;17.98;;
33495;SDS011;19836;55.812;37.560;2023-09-12T04:07:11;25.85;;;18.05;;
33495;SDS011;19836;55.812;37.560;2023-09-12T04:09:44;25.35;;;18.10;;
33495;SDS011;19836;55.812;37.560;2023-09-12T04:12:35;24.88;;;18.85;;
33495;SDS011;19836;55.812;37.560;2023-09-12T04:15:01;28.40;;;18.60;;
33495;SDS011;19836;55.812;37.560;2023-09-12T04:17:30;26.33;;;19.58;;
33495;SDS011;19836;55.812;37.560;2023-09-12T04:19:56;27.00;;;19.67;;
33495;SDS011;19836;55.812;37.560;2023-09-12T04:22:22;24.88;;;18.63;;
33495;SDS011;19836;55.812;37.560;2023-09-12T04:24:48;25.58;;;18.80;;
33495;SDS011;19836;55.812;37.560;2023-09-12T04:27:46;24.52;;;18.67;;
33495;SDS011;19836;55.812;37.560;2023-09-12T04:34:24;25.85;;;19.15;;
33495;SDS011;19836;55.812;37.560;2023-09-12T04:37:23;25.23;;;17.73;;
33495;SDS011;19836;55.812;37.560;2023-09-12T04:39:51;27.50;;;20.27;;
33495;SDS011;19836;55.812;37.560;2023-09-12T04:42:21;29.30;;;20.77;;
33495;SDS011;19836;55.812;37.560;2023-09-12T04:45:02;27.20;;;19.08;;
33495;SDS011;19836;55.812;37.560;2023-09-12T04:47:31;26.52;;;20.55;;
33495;SDS011;19836;55.812;37.560;2023-09-12T04:52:42;30.23;;;21.10;;
33495;SDS011;19836;55.812;37.560;2023-09-12T04:55:10;24.85;;;18.65;;
33495;SDS011;19836;55.812;37.560;2023-09-12T04:57:40;28.52;;;20.83;;
33495;SDS011;19836;55.812;37.560;2023-09-12T05:00:10;27.83;;;19.50;;
33495;SDS011;19836;55.812;37.560;2023-09-12T05:02:37;28.13;;;20.00;;
33495;SDS011;19836;55.812;37.560;2023-09-12T05:05:03;24.73;;;19.35;;
33495;SDS011;19836;55.812;37.560;2023-09-12T05:07:30;29.52;;;21.63;;
33495;SDS011;19836;55.812;37.560;2023-09-12T05:09:57;25.60;;;19.73;;
33495;SDS011;19836;55.812;37.560;2023-09-12T05:12:23;24.27;;;18.88;;
33495;SDS011;19836;55.812;37.560;2023-09-12T05:14:52;24.95;;;18.83;;
33495;SDS011;19836;55.812;37.560;2023-09-12T05:17:19;31.55;;;20.48;;
33495;SDS011;19836;55.812;37.560;2023-09-12T05:22:41;24.67;;;18.80;;
33495;SDS011;19836;55.812;37.560;2023-09-12T05:25:54;24.58;;;20.05;;
33495;SDS011;19836;55.812;37.560;2023-09-12T05:29:08;27.13;;;22.50;;
33495;SDS011;19836;55.812;37.560;2023-09-12T05:31:35;27.38;;;19.52;;
33495;SDS011;19836;55.812;37.560;2023-09-12T05:34:01;28.38;;;21.15;;
33495;SDS011;19836;55.812;37.560;2023-09-12T05:36:59;25.33;;;18.90;;
33495;SDS011;19836;55.812;37.560;2023-09-12T05:42:18;36.25;;;24.58;;
33495;SDS011;19836;55.812;37.560;2023-09-12T05:44:49;25.98;;;20.13;;
33495;SDS011;19836;55.812;37.560;2023-09-12T05:47:19;28.45;;;19.33;;
33495;SDS011;19836;55.812;37.560;2023-09-12T05:49:46;28.35;;;20.85;;
33495;SDS011;19836;55.812;37.560;2023-09-12T05:52:13;27.10;;;19.80;;
33495;SDS011;19836;55.812;37.560;2023-09-12T05:54:39;25.92;;;20.17;;
33495;SDS011;19836;55.812;37.560;2023-09-12T05:57:14;26.25;;;20.02;;
33495;SDS011;19836;55.812;37.560;2023-09-12T06:00:43;26.13;;;20.10;;
33495;SDS011;19836;55.812;37.560;2023-09-12T06:03:14;25.45;;;20.00;;
33495;SDS011;19836;55.812;37.560;2023-09-12T06:05:45;26.25;;;19.95;;
33495;SDS011;19836;55.812;37.560;2023-09-12T06:08:11;28.65;;;19.63;;
33495;SDS011;19836;55.812;37.560;2023-09-12T06:14:50;26.42;;;19.27;;
33495;SDS011;19836;55.812;37.560;2023-09-12T06:17:19;24.65;;;19.10;;
33495;SDS011;19836;55.812;37.560;2023-09-12T06:19:48;26.83;;;19.13;;
33495;SDS011;19836;55.812;37.560;2023-09-12T06:22:17;21.73;;;18.08;;
33495;SDS011;19836;55.812;37.560;2023-09-12T06:24:46;24.92;;;18.77;;
33495;SDS011;19836;55.812;37.560;2023-09-12T06:27:12;26.02;;;19.25;;
33495;SDS011;19836;55.812;37.560;2023-09-12T06:29:44;24.92;;;19.35;;
33495;SDS011;19836;55.812;37.560;2023-09-12T06:32:14;23.17;;;18.70;;
33495;SDS011;19836;55.812;37.560;2023-09-12T06:34:42;23.05;;;18.75;;
33495;SDS011;19836;55.812;37.560;2023-09-12T06:37:10;24.25;;;18.83;;
33495;SDS011;19836;55.812;37.560;2023-09-12T06:39:38;22.27;;;17.95;;
33495;SDS011;19836;55.812;37.560;2023-09-12T06:42:04;25.88;;;18.80;;
33495;SDS011;19836;55.812;37.560;2023-09-12T06:50:24;27.85;;;19.85;;
33495;SDS011;19836;55.812;37.560;2023-09-12T06:52:51;28.08;;;19.38;;
33495;SDS011;19836;55.812;37.560;2023-09-12T07:52:52;33.13;;;27.52;;
33495;SDS011;19836;55.812;37.560;2023-09-12T07:56:10;21.98;;;18.27;;
33495;SDS011;19836;55.812;37.560;2023-09-12T08:01:00;22.13;;;17.02;;
33495;SDS011;19836;55.812;37.560;2023-09-12T08:59:45;15.00;;;12.52;;
33495;SDS011;19836;55.812;37.560;2023-09-12T09:06:27;16.88;;;12.20;;
33495;SDS011;19836;55.812;37.560;2023-09-12T09:08:53;14.43;;;11.43;;
33495;SDS011;19836;55.812;37.560;2023-09-12T09:11:20;14.68;;;10.98;;
33495;SDS011;19836;55.812;37.560;2023-09-12T09:13:45;16.17;;;10.90;;
33495;SDS011;19836;55.812;37.560;2023-09-12T09:16:14;20.95;;;15.13;;
33495;SDS011;19836;55.812;37.560;2023-09-12T09:21:35;11.05;;;9.40;;
33495;SDS011;19836;55.812;37.560;2023-09-12T09:24:03;10.90;;;9.80;;
33495;SDS011;19836;55.812;37.560;2023-09-12T09:26:47;12.65;;;10.73;;
33495;SDS011;19836;55.812;37.560;2023-09-12T09:29:25;12.02;;;9.93;;
33495;SDS011;19836;55.812;37.560;2023-09-12T09:31:58;14.90;;;10.45;;
33495;SDS011;19836;55.812;37.560;2023-09-12T09:34:25;10.45;;;9.30;;
33495;SDS011;19836;55.812;37.560;2023-09-12T09:36:55;10.88;;;9.77;;
33495;SDS011;19836;55.812;37.560;2023-09-12T09:39:22;19.02;;;12.88;;
33495;SDS011;19836;55.812;37.560;2023-09-12T09:41:50;14.95;;;11.77;;
33495;SDS011;19836;55.812;37.560;2023-09-12T09:44:23;12.10;;;9.73;;
33495;SDS011;19836;55.812;37.560;2023-09-12T09:46:58;12.45;;;9.38;;
33495;SDS011;19836;55.812;37.560;2023-09-12T09:49:30;11.75;;;8.93;;
33495;SDS011;19836;55.812;37.560;2023-09-12T09:51:59;10.52;;;8.40;;
33495;SDS011;19836;55.812;37.560;2023-09-12T09:54:28;12.93;;;8.55;;
33495;SDS011;19836;55.812;37.560;2023-09-12T09:56:55;12.82;;;9.88;;
33495;SDS011;19836;55.812;37.560;2023-09-12T09:59:23;18.27;;;15.02;;
33495;SDS011;19836;55.812;37.560;2023-09-12T10:01:56;11.63;;;10.23;;
33495;SDS011;19836;55.812;37.560;2023-09-12T10:04:23;13.32;;;9.70;;
33495;SDS011;19836;55.812;37.560;2023-09-12T10:06:55;15.13;;;12.25;;
33495;SDS011;19836;55.812;37.560;2023-09-12T10:09:22;12.43;;;9.80;;
33495;SDS011;19836;55.812;37.560;2023-09-12T10:11:51;10.50;;;9.40;;
33495;SDS011;19836;55.812;37.560;2023-09-12T10:14:20;16.40;;;13.98;;
33495;SDS011;19836;55.812;37.560;2023-09-12T10:16:48;15.15;;;12.43;;
33495;SDS011;19836;55.812;37.560;2023-09-12T10:21:54;10.18;;;8.98;;
33495;SDS011;19836;55.812;37.560;2023-09-12T10:24:37;11.20;;;8.70;;
33495;SDS011;19836;55.812;37.560;2023-09-12T10:27:08;9.98;;;8.98;;
33495;SDS011;19836;55.812;37.560;2023-09-12T10:29:35;10.95;;;9.88;;
33495;SDS011;19836;55.812;37.560;2023-09-12T10:32:01;11.23;;;9.15;;
33495;SDS011;19836;55.812;37.560;2023-09-12T10:34:27;10.50;;;9.40;;
33495;SDS011;19836;55.812;37.560;2023-09-12T10:36:55;21.27;;;19.05;;
33495;SDS011;19836;55.812;37.560;2023-09-12T10:39:24;13.75;;;12.45;;
33495;SDS011;19836;55.812;37.560;2023-09-12T10:41:53;9.13;;;8.23;;
33495;SDS011;19836;55.812;37.560;2023-09-12T10:44:20;8.10;;;7.30;;
33495;SDS011;19836;55.812;37.560;2023-09-12T10:46:49;9.52;;;7.20;;
33495;SDS011;19836;55.812;37.560;2023-09-12T10:49:17;8.02;;;6.72;;
33495;SDS011;19836;55.812;37.560;2023-09-12T10:51:44;9.75;;;7.90;;
33495;SDS011;19836;55.812;37.560;2023-09-12T10:54:15;7.78;;;6.97;;
33495;SDS011;19836;55.812;37.560;2023-09-12T10:57:09;7.47;;;6.40;;
33495;SDS011;19836;55.812;37.560;2023-09-12T11:02:28;7.20;;;6.18;;
33495;SDS011;19836;55.812;37.560;2023-09-12T11:04:55;8.02;;;6.47;;
33495;SDS011;19836;55.812;37.560;2023-09-12T11:07:32;7.50;;;6.80;;
33495;SDS011;19836;55.812;37.560;2023-09-12T11:12:45;8.00;;;6.20;;
33495;SDS011;19836;55.812;37.560;2023-09-12T11:15:13;8.75;;;5.78;;
33495;SDS011;19836;55.812;37.560;2023-09-12T11:17:49;7.72;;;5.97;;
33495;SDS011;19836;55.812;37.560;2023-09-12T11:20:25;6.40;;;5.68;;
33495;SDS011;19836;55.812;37.560;2023-09-12T11:22:51;8.00;;;5.82;;
33495;SDS011;19836;55.812;37.560;2023-09-12T11:30:20;6.88;;;5.47;;
33495;SDS011;19836;55.812;37.560;2023-09-12T11:32:48;24.17;;;21.65;;
33495;SDS011;19836;55.812;37.560;2023-09-12T11:35:16;6.55;;;5.95;;
33495;SDS011;19836;55.812;37.560;2023-09-12T11:37:51;6.18;;;5.20;;
33495;SDS011;19836;55.812;37.560;2023-09-12T11:40:53;7.45;;;5.05;;
33495;SDS011;19836;55.812;37.560;2023-09-12T11:43:22;5.50;;;5.00;;
33495;SDS011;19836;55.812;37.560;2023-09-12T11:45:49;10.15;;;7.78;;
33495;SDS011;19836;55.812;37.560;2023-09-12T11:48:17;6.68;;;5.82;;
33495;SDS011;19836;55.812;37.560;2023-09-12T11:50:48;6.03;;;5.00;;
33495;SDS011;19836;55.812;37.560;2023-09-12T11:53:18;6.47;;;5.25;;
33495;SDS011;19836;55.812;37.560;2023-09-12T11:55:47;7.97;;;5.55;;
33495;SDS011;19836;55.812;37.560;2023-09-12T11:58:18;8.02;;;5.47;;
33495;SDS011;19836;55.812;37.560;2023-09-12T12:00:46;7.68;;;5.60;;
33495;SDS011;19836;55.812;37.560;2023-09-12T12:03:14;6.28;;;5.32;;
33495;SDS011;19836;55.812;37.560;2023-09-12T12:05:40;7.13;;;6.18;;
33495;SDS011;19836;55.812;37.560;2023-09-12T12:08:12;8.70;;;6.38;;
33495;SDS011;19836;55.812;37.560;2023-09-12T12:10:40;12.68;;;9.65;;
33495;SDS011;19836;55.812;37.560;2023-09-12T12:13:06;7.47;;;5.25;;
33495;SDS011;19836;55.812;37.560;2023-09-12T12:15:37;9.27;;;7.30;;
33495;SDS011;19836;55.812;37.560;2023-09-12T12:18:02;5.65;;;5.10;;
33495;SDS011;19836;55.812;37.560;2023-09-12T12:20:29;10.63;;;6.32;;
33495;SDS011;19836;55.812;37.560;2023-09-12T12:22:55;9.30;;;6.88;;
33495;SDS011;19836;55.812;37.560;2023-09-12T12:25:22;9.90;;;5.65;;
33495;SDS011;19836;55.812;37.560;2023-09-12T12:27:48;6.60;;;5.65;;
33495;SDS011;19836;55.812;37.560;2023-09-12T12:30:14;7.85;;;5.38;;
33495;SDS011;19836;55.812;37.560;2023-09-12T12:32:43;9.70;;;8.80;;
33495;SDS011;19836;55.812;37.560;2023-09-12T12:35:22;11.00;;;7.22;;
33495;SDS011;19836;55.812;37.560;2023-09-12T12:37:52;17.58;;;12.48;;
33495;SDS011;19836;55.812;37.560;2023-09-12T12:40:23;9.63;;;5.68;;
33495;SDS011;19836;55.812;37.560;2023-09-12T12:42:51;7.18;;;5.22;;
33495;SDS011;19836;55.812;37.560;2023-09-12T12:45:21;7.85;;;4.93;;
33495;SDS011;19836;55.812;37.560;2023-09-12T12:47:57;7.05;;;5.53;;
33495;SDS011;19836;55.812;37.560;2023-09-12T12:50:25;5.88;;;4.90;;
33495;SDS011;19836;55.812;37.560;2023-09-12T12:52:52;6.05;;;4.50;;
33495;SDS011;19836;55.812;37.560;2023-09-12T12:55:20;7.60;;;4.93;;
33495;SDS011;19836;55.812;37.560;2023-09-12T12:57:47;5.47;;;4.50;;
33495;SDS011;19836;55.812;37.560;2023-09-12T13:00:14;4.90;;;4.40;;
33495;SDS011;19836;55.812;37.560;2023-09-12T13:02:42;5.68;;;4.30;;
33495;SDS011;19836;55.812;37.560;2023-09-12T13:05:24;7.55;;;4.78;;
33495;SDS011;19836;55.812;37.560;2023-09-12T13:07:51;4.30;;;3.70;;
33495;SDS011;19836;55.812;37.560;2023-09-12T13:10:18;7.70;;;5.20;;
33495;SDS011;19836;55.812;37.560;2023-09-12T13:12:44;6.75;;;4.60;;
33495;SDS011;19836;55.812;37.560;2023-09-12T13:15:13;7.00;;;4.60;;
33495;SDS011;19836;55.812;37.560;2023-09-12T13:17:40;5.72;;;4.88;;
33495;SDS011;19836;55.812;37.560;2023-09-12T13:20:07;7.63;;;5.13;;
33495;SDS011;19836;55.812;37.560;2023-09-12T13:22:34;8.48;;;5.38;;
33495;SDS011;19836;55.812;37.560;2023-09-12T13:25:00;5.82;;;4.85;;
33495;SDS011;19836;55.812;37.560;2023-09-12T13:27:30;8.65;;;5.32;;
33495;SDS011;19836;55.812;37.560;2023-09-12T13:29:55;7.30;;;4.80;;
33495;SDS011;19836;55.812;37.560;2023-09-12T13:32:21;25.67;;;23.20;;
33495;SDS011;19836;55.812;37.560;2023-09-12T13:34:47;6.18;;;5.43;;
33495;SDS011;19836;55.812;37.560;2023-09-12T13:37:15;7.15;;;4.97;;
33495;SDS011;19836;55.812;37.560;2023-09-12T13:39:42;6.60;;;5.40;;
33495;SDS011;19836;55.812;37.560;2023-09-12T13:42:15;6.85;;;4.38;;
33495;SDS011;19836;55.812;37.560;2023-09-12T13:44:46;5.32;;;4.22;;
33495;SDS011;19836;55.812;37.560;2023-09-12T13:47:12;6.95;;;4.80;;
33495;SDS011;19836;55.812;37.560;2023-09-12T13:49:38;5.38;;;4.20;;
33495;SDS011;19836;55.812;37.560;2023-09-12T13:52:04;6.22;;;4.43;;
33495;SDS011;19836;55.812;37.560;2023-09-12T13:54:30;6.53;;;4.80;;
33495;SDS011;19836;55.812;37.560;2023-09-12T13:56:56;6.53;;;5.65;;
33495;SDS011;19836;55.812;37.560;2023-09-12T13:59:22;8.82;;;7.88;;
33495;SDS011;19836;55.812;37.560;2023-09-12T14:01:48;6.28;;;4.50;;
33495;SDS011;19836;55.812;37.560;2023-09-12T14:04:14;6.13;;;5.25;;
33495;SDS011;19836;55.812;37.560;2023-09-12T14:06:41;7.90;;;5.57;;
33495;SDS011;19836;55.812;37.560;2023-09-12T14:09:08;7.30;;;6.35;;
33495;SDS011;19836;55.812;37.560;2023-09-12T14:11:35;6.55;;;4.72;;
33495;SDS011;19836;55.812;37.560;2023-09-12T14:14:01;6.32;;;4.57;;
33495;SDS011;19836;55.812;37.560;2023-09-12T14:16:28;6.53;;;4.55;;
33495;SDS011;19836;55.812;37.560;2023-09-12T14:18:54;6.68;;;4.65;;
33495;SDS011;19836;55.812;37.560;2023-09-12T14:21:20;13.00;;;7.63;;
33495;SDS011;19836;55.812;37.560;2023-09-12T14:23:46;12.10;;;7.13;;
33495;SDS011;19836;55.812;37.560;2023-09-12T14:26:12;5.40;;;4.10;;
33495;SDS011;19836;55.812;37.560;2023-09-12T14:28:38;6.60;;;4.20;;
33495;SDS011;19836;55.812;37.560;2023-09-12T14:31:04;6.47;;;4.63;;
33495;SDS011;19836;55.812;37.560;2023-09-12T14:33:31;42.08;;;26.48;;
33495;SDS011;19836;55.812;37.560;2023-09-12T14:35:57;5.25;;;4.45;;
33495;SDS011;19836;55.812;37.560;2023-09-12T14:38:23;4.85;;;4.00;;
33495;SDS011;19836;55.812;37.560;2023-09-12T14:40:52;6.35;;;4.30;;
33495;SDS011;19836;55.812;37.560;2023-09-12T14:43:18;6.95;;;4.35;;
33495;SDS011;19836;55.812;37.560;2023-09-12T14:45:44;7.50;;;4.40;;
33495;SDS011;19836;55.812;37.560;2023-09-12T14:48:10;5.82;;;4.30;;
33495;SDS011;19836;55.812;37.560;2023-09-12T14:50:35;6.03;;;4.03;;
33495;SDS011;19836;55.812;37.560;2023-09-12T14:53:01;6.65;;;3.97;;
33495;SDS011;19836;55.812;37.560;2023-09-12T14:55:27;5.15;;;4.15;;
33495;SDS011;19836;55.812;37.560;2023-09-12T14:57:53;5.75;;;3.92;;
33495;SDS011;19836;55.812;37.560;2023-09-12T15:00:20;6.43;;;4.13;;
33495;SDS011;19836;55.812;37.560;2023-09-12T15:02:46;5.15;;;4.35;;
33495;SDS011;19836;55.812;37.560;2023-09-12T15:05:11;4.65;;;3.80;;
33495;SDS011;19836;55.812;37.560;2023-09-12T15:07:37;4.70;;;4.13;;
33495;SDS011;19836;55.812;37.560;2023-09-12T15:10:04;4.85;;;4.03;;
33495;SDS011;19836;55.812;37.560;2023-09-12T15:12:30;5.03;;;3.78;;
33495;SDS011;19836;55.812;37.560;2023-09-12T15:14:56;6.03;;;4.00;;
33495;SDS011;19836;55.812;37.560;2023-09-12T15:17:22;5.97;;;4.13;;
33495;SDS011;19836;55.812;37.560;2023-09-12T15:19:48;7.05;;;4.13;;
33495;SDS011;19836;55.812;37.560;2023-09-12T15:22:14;5.68;;;3.88;;
33495;SDS011;19836;55.812;37.560;2023-09-12T15:24:40;6.55;;;4.30;;
33495;SDS011;19836;55.812;37.560;2023-09-12T15:27:06;7.53;;;4.38;;
33495;SDS011;19836;55.812;37.560;2023-09-12T15:29:32;7.05;;;4.35;;
33495;SDS011;19836;55.812;37.560;2023-09-12T15:31:58;8.02;;;4.22;;
33495;SDS011;19836;55.812;37.560;2023-09-12T15:34:26;6.15;;;3.72;;
33495;SDS011;19836;55.812;37.560;2023-09-12T15:37:05;8.68;;;4.40;;
33495;SDS011;19836;55.812;37.560;2023-09-12T15:39:34;8.13;;;4.60;;
33495;SDS011;19836;55.812;37.560;2023-09-12T15:42:00;9.73;;;4.93;;
33495;SDS011;19836;55.812;37.560;2023-09-12T15:44:26;4.43;;;3.83;;
33495;SDS011;19836;55.812;37.560;2023-09-12T15:46:52;11.20;;;4.78;;
33495;SDS011;19836;55.812;37.560;2023-09-12T15:49:23;5.75;;;4.10;;
33495;SDS011;19836;55.812;37.560;2023-09-12T15:51:50;6.38;;;4.32;;
33495;SDS011;19836;55.812;37.560;2023-09-12T15:54:16;6.78;;;4.22;;
33495;SDS011;19836;55.812;37.560;2023-09-12T15:56:42;5.28;;;4.60;;
33495;SDS011;19836;55.812;37.560;2023-09-12T15:59:08;6.65;;;4.85;;
33495;SDS011;19836;55.812;37.560;2023-09-12T16:01:34;7.72;;;4.20;;
33495;SDS011;19836;55.812;37.560;2023-09-12T16:04:01;5.95;;;4.40;;
33495;SDS011;19836;55.812;37.560;2023-09-12T16:06:27;6.35;;;4.90;;
33495;SDS011;19836;55.812;37.560;2023-09-12T16:08:53;8.23;;;4.32;;
33495;SDS011;19836;55.812;37.560;2023-09-12T16:11:19;6.00;;;4.20;;
33495;SDS011;19836;55.812;37.560;2023-09-12T16:13:45;5.07;;;4.47;;
33495;SDS011;19836;55.812;37.560;2023-09-12T16:16:11;7.68;;;4.35;;
33495;SDS011;19836;55.812;37.560;2023-09-12T16:18:37;5.53;;;4.65;;
33495;SDS011;19836;55.812;37.560;2023-09-12T16:21:08;7.22;;;4.60;;
33495;SDS011;19836;55.812;37.560;2023-09-12T16:23:34;9.50;;;5.35;;
33495;SDS011;19836;55.812;37.560;2023-09-12T16:26:02;8.82;;;5.25;;
33495;SDS011;19836;55.812;37.560;2023-09-12T16:28:28;9.75;;;5.80;;
33495;SDS011;19836;55.812;37.560;2023-09-12T16:30:54;7.47;;;5.57;;
33495;SDS011;19836;55.812;37.560;2023-09-12T16:33:20;6.72;;;4.82;;
33495;SDS011;19836;55.812;37.560;2023-09-12T16:35:46;6.78;;;5.20;;
33495;SDS011;19836;55.812;37.560;2023-09-12T16:38:14;8.00;;;4.90;;
33495;SDS011;19836;55.812;37.560;2023-09-12T16:40:41;7.82;;;4.80;;
33495;SDS011;19836;55.812;37.560;2023-09-12T16:43:06;10.13;;;5.15;;
33495;SDS011;19836;55.812;37.560;2023-09-12T16:45:32;5.72;;;4.95;;
33495;SDS011;19836;55.812;37.560;2023-09-12T16:47:58;7.60;;;4.53;;
33495;SDS011;19836;55.812;37.560;2023-09-12T16:50:25;7.93;;;4.70;;
33495;SDS011;19836;55.812;37.560;2023-09-12T16:52:51;5.97;;;4.68;;
33495;SDS011;19836;55.812;37.560;2023-09-12T16:55:17;8.20;;;5.30;;
33495;SDS011;19836;55.812;37.560;2023-09-12T16:57:45;9.18;;;5.07;;
33495;SDS011;19836;55.812;37.560;2023-09-12T17:00:11;9.05;;;5.30;;
33495;SDS011;19836;55.812;37.560;2023-09-12T17:02:40;9.43;;;5.18;;
33495;SDS011;19836;55.812;37.560;2023-09-12T17:05:06;7.88;;;5.20;;
33495;SDS011;19836;55.812;37.560;2023-09-12T17:07:32;7.78;;;5.47;;
33495;SDS011;19836;55.812;37.560;2023-09-12T17:09:58;7.13;;;4.97;;
33495;SDS011;19836;55.812;37.560;2023-09-12T17:12:24;7.55;;;5.22;;
33495;SDS011;19836;55.812;37.560;2023-09-12T17:14:50;7.63;;;5.63;;
33495;SDS011;19836;55.812;37.560;2023-09-12T17:17:16;8.00;;;5.43;;
33495;SDS011;19836;55.812;37.560;2023-09-12T17:19:42;7.72;;;4.82;;
33495;SDS011;19836;55.812;37.560;2023-09-12T17:22:11;7.15;;;5.07;;
33495;SDS011;19836;55.812;37.560;2023-09-12T17:24:43;8.23;;;5.30;;
33495;SDS011;19836;55.812;37.560;2023-09-12T18:28:07;14.20;;;7.10;;
33495;SDS011;19836;55.812;37.560;2023-09-12T18:30:52;11.88;;;7.18;;
33495;SDS011;19836;55.812;37.560;2023-09-12T18:33:24;10.73;;;7.22;;
